1AK1 weather

Crevice Creek Airport
Crevice Creek, Alaska, United States

Public forecast

Using degrees Fahrenheit for public forecast. Weather courtesy of forecast.io.

Closest aviation weather report (METAR) to Crevice Creek Airport

Closest report is Bettles Airport, 29.8 nm (55.2 km) SSE. Retrieved 2020/03/31 04:53 UTC (2 hours ago):

PABT 310453Z 12005KT 10SM FEW240 M09/M22 A3029 RMK AO2 SLP280 T10941217

Closest aviation forecast (TAF) to Crevice Creek Airport

Closest forecast is Bettles Airport, 29.8 nm (55.2 km) SSE. Retrieved 2020/03/31 06:22 UTC (8 minutes ago):

TAF PABT 310520Z 3106/0106 05004KT P6SM BKN120